Time;durP1;ratioP1;P1;durP2;ratioP2;P2;SDS_P1;SDS_P2;PMS_P1;PMS_P2;Temp;Humidity;BMP_temperature;BMP_pressure;BME280_temperature;BME280_humidity;BME280_pressure;Samples;Min_cycle;Max_cycle;Signal;HPM_P1;HPM_P2
2023/05/22 00:02:03;;;;;;;3.60;2.17;;;11.70;99.90;;;;;;4993733;28;20623;-83
2023/05/22 00:04:29;;;;;;;3.15;2.05;;;11.70;99.90;;;;;;5008625;28;20184;-82
2023/05/22 00:06:55;;;;;;;2.78;1.88;;;11.60;99.90;;;;;;4993805;28;20174;-81
2023/05/22 00:09:22;;;;;;;3.00;2.15;;;11.60;99.90;;;;;;5025438;28;20730;-82
2023/05/22 00:11:48;;;;;;;3.92;2.33;;;11.50;99.90;;;;;;5025420;28;20268;-83
2023/05/22 00:14:15;;;;;;;4.53;2.58;;;11.50;99.90;;;;;;4993578;28;20643;-82
2023/05/22 00:16:40;;;;;;;2.58;1.40;;;11.40;99.90;;;;;;5025051;28;20174;-82
2023/05/22 00:19:11;;;;;;;4.05;2.53;;;11.50;99.90;;;;;;4992210;28;20189;-83
2023/05/22 00:21:38;;;;;;;2.30;1.63;;;11.40;99.90;;;;;;4995098;28;20166;-82
2023/05/22 00:24:04;;;;;;;2.58;2.05;;;11.40;99.90;;;;;;4997091;28;20178;-85
2023/05/22 00:26:30;;;;;;;3.83;2.20;;;11.40;99.90;;;;;;4997107;28;20670;-82
2023/05/22 00:28:56;;;;;;;4.93;1.92;;;11.30;99.90;;;;;;4995901;28;20177;-82
2023/05/22 00:31:22;;;;;;;2.85;1.77;;;11.30;99.90;;;;;;5028207;28;20214;-83
2023/05/22 00:33:49;;;;;;;3.10;2.17;;;11.20;99.90;;;;;;4995643;28;20186;-82
2023/05/22 00:36:14;;;;;;;4.10;2.40;;;11.20;99.90;;;;;;4996753;28;20180;-83
2023/05/22 00:38:40;;;;;;;4.32;2.17;;;11.20;99.90;;;;;;5028745;28;20189;-82
2023/05/22 00:41:06;;;;;;;3.28;2.03;;;11.10;99.90;;;;;;5028397;28;20182;-82
2023/05/22 00:43:37;;;;;;;6.60;2.33;;;11.10;99.90;;;;;;5027968;28;20190;-82
2023/05/22 00:46:02;;;;;;;2.65;1.90;;;11.00;99.90;;;;;;4995762;28;20181;-82
2023/05/22 00:48:28;;;;;;;3.17;2.28;;;10.90;99.90;;;;;;5028079;28;20641;-81
2023/05/22 00:50:56;;;;;;;3.80;2.13;;;10.90;99.90;;;;;;5027958;28;20237;-82
2023/05/22 00:53:23;;;;;;;2.35;1.80;;;10.90;99.90;;;;;;5027829;28;20218;-82
2023/05/22 00:55:50;;;;;;;4.45;2.33;;;10.80;99.90;;;;;;4996257;28;20170;-82
2023/05/22 00:58:19;;;;;;;3.10;1.98;;;10.80;99.90;;;;;;5028511;28;20193;-82
2023/05/22 01:00:47;;;;;;;4.25;2.25;;;10.80;99.90;;;;;;5028061;28;20277;-82
2023/05/22 01:03:14;;;;;;;5.75;3.03;;;10.70;99.90;;;;;;4995922;28;20632;-83
2023/05/22 01:05:40;;;;;;;5.70;3.97;;;10.60;99.90;;;;;;4996153;28;20230;-82
2023/05/22 01:08:07;;;;;;;7.38;4.50;;;10.60;99.90;;;;;;5027746;28;20216;-82
2023/05/22 01:10:35;;;;;;;7.28;4.88;;;10.60;99.90;;;;;;4996004;28;20223;-82
2023/05/22 01:13:27;;;;;;;8.68;4.30;;;10.60;99.90;;;;;;4996304;28;20646;-82
2023/05/22 01:16:11;;;;;;;10.20;4.88;;;10.50;99.90;;;;;;4996428;28;20162;-82
2023/05/22 01:18:57;;;;;;;10.45;4.85;;;10.50;99.90;;;;;;4995893;28;20174;-82
2023/05/22 01:21:28;;;;;;;13.10;3.70;;;10.50;99.90;;;;;;4996323;28;20166;-82
2023/05/22 01:24:16;;;;;;;7.03;3.78;;;10.50;99.90;;;;;;4996083;28;20166;-82
2023/05/22 01:26:47;;;;;;;7.00;3.85;;;10.40;99.90;;;;;;4996823;28;20162;-81
2023/05/22 01:29:28;;;;;;;6.95;3.65;;;10.30;99.90;;;;;;4999298;28;20166;-82
2023/05/22 01:31:57;;;;;;;9.52;3.58;;;10.40;99.90;;;;;;5031927;28;20615;-81
2023/05/22 01:34:25;;;;;;;6.78;3.85;;;10.30;99.90;;;;;;5029591;28;20221;-81
2023/05/22 01:36:52;;;;;;;7.88;3.53;;;10.30;99.90;;;;;;5030939;28;20174;-82
2023/05/22 01:39:18;;;;;;;16.25;3.95;;;10.20;99.90;;;;;;5029013;28;20655;-82
2023/05/22 01:41:44;;;;;;;9.15;4.20;;;10.20;99.90;;;;;;4995788;28;20181;-82
2023/05/22 01:44:10;;;;;;;10.35;4.65;;;10.20;99.90;;;;;;4995602;28;20228;-81
2023/05/22 01:46:37;;;;;;;10.57;4.47;;;10.20;99.90;;;;;;4994211;28;20174;-81
2023/05/22 01:49:02;;;;;;;18.55;4.28;;;10.10;99.90;;;;;;5026573;28;20189;-82
2023/05/22 01:51:49;;;;;;;10.00;4.70;;;10.10;99.90;;;;;;4995269;28;20659;-82
2023/05/22 01:54:23;;;;;;;14.02;5.20;;;10.00;99.90;;;;;;4995478;28;20253;-84
2023/05/22 01:57:18;;;;;;;15.13;4.88;;;10.00;99.90;;;;;;4995594;28;20216;-81
2023/05/22 02:00:10;;;;;;;13.30;5.40;;;10.00;99.90;;;;;;4994321;28;20200;-82
2023/05/22 02:02:39;;;;;;;10.90;5.57;;;9.90;99.90;;;;;;4993823;28;20433;-82
2023/05/22 02:05:10;;;;;;;9.95;4.57;;;9.90;99.90;;;;;;4995222;28;20178;-82
2023/05/22 02:07:41;;;;;;;8.50;5.07;;;9.90;99.90;;;;;;5026671;28;20188;-82
2023/05/22 02:10:10;;;;;;;12.00;5.07;;;9.90;99.90;;;;;;4995142;28;20174;-82
2023/05/22 02:12:36;;;;;;;15.15;6.05;;;9.90;99.90;;;;;;4993562;28;20182;-82
2023/05/22 02:15:03;;;;;;;13.48;5.03;;;9.80;99.90;;;;;;5026278;28;20178;-82
2023/05/22 02:17:29;;;;;;;12.18;4.97;;;9.80;99.90;;;;;;4995106;28;20615;-82
2023/05/22 02:19:54;;;;;;;15.15;6.00;;;9.80;99.90;;;;;;5009935;28;20185;-82
2023/05/22 02:22:20;;;;;;;12.18;5.15;;;9.80;99.90;;;;;;5026072;28;20174;-82
2023/05/22 02:24:47;;;;;;;10.75;5.15;;;9.70;99.90;;;;;;5026408;28;20174;-82
2023/05/22 02:27:13;;;;;;;15.50;5.97;;;9.70;99.90;;;;;;4994868;28;20201;-82
2023/05/22 02:29:39;;;;;;;10.05;4.30;;;9.70;99.90;;;;;;4994686;28;20185;-82
2023/05/22 02:32:05;;;;;;;12.85;4.70;;;9.70;99.90;;;;;;4994637;28;20202;-82
2023/05/22 02:34:31;;;;;;;9.20;5.00;;;9.70;99.90;;;;;;5009583;28;20193;-82
2023/05/22 02:37:02;;;;;;;9.45;4.15;;;9.70;99.90;;;;;;4994883;28;20189;-82
2023/05/22 02:39:29;;;;;;;10.05;4.38;;;9.60;99.90;;;;;;5025544;28;20174;-82
2023/05/22 02:41:54;;;;;;;9.48;5.13;;;9.60;99.90;;;;;;4994524;28;20185;-81
2023/05/22 02:44:20;;;;;;;8.93;5.05;;;9.60;99.90;;;;;;5009064;28;20706;-82
2023/05/22 02:46:46;;;;;;;9.02;5.03;;;9.60;99.90;;;;;;4994062;28;20552;-82
2023/05/22 02:49:13;;;;;;;9.93;4.60;;;9.60;99.90;;;;;;4994370;28;20198;-82
2023/05/22 02:51:39;;;;;;;7.75;4.38;;;9.60;99.90;;;;;;4994259;28;20272;-82
2023/05/22 02:54:04;;;;;;;10.90;4.90;;;9.60;99.90;;;;;;4994405;28;20185;-82
2023/05/22 02:56:30;;;;;;;9.85;4.28;;;9.60;99.90;;;;;;5025572;28;20186;-82
2023/05/22 02:58:56;;;;;;;10.00;4.55;;;9.70;99.90;;;;;;4994027;28;20232;-81
2023/05/22 03:01:21;;;;;;;8.25;4.47;;;9.70;99.90;;;;;;5025802;28;20273;-82
2023/05/22 03:03:48;;;;;;;10.18;4.68;;;9.70;99.90;;;;;;4994175;28;20638;-82
2023/05/22 03:06:14;;;;;;;9.82;4.95;;;9.70;99.90;;;;;;5025883;28;20181;-82
2023/05/22 03:08:42;;;;;;;9.32;4.50;;;9.70;99.90;;;;;;4993826;28;20643;-82
2023/05/22 03:11:08;;;;;;;8.43;4.25;;;9.70;99.90;;;;;;4994084;28;20213;-82
2023/05/22 03:13:34;;;;;;;8.60;5.10;;;9.80;99.90;;;;;;5025336;28;20547;-82
2023/05/22 03:16:00;;;;;;;5.97;3.65;;;9.80;99.90;;;;;;4994249;28;20174;-82
2023/05/22 03:18:25;;;;;;;12.52;4.95;;;9.80;99.90;;;;;;5025572;28;20182;-82
2023/05/22 03:20:51;;;;;;;10.93;4.40;;;9.80;99.90;;;;;;4992832;28;20699;-82
2023/05/22 03:23:19;;;;;;;9.02;4.65;;;9.80;99.90;;;;;;5025942;28;20182;-82
2023/05/22 03:25:45;;;;;;;9.15;4.47;;;9.90;99.90;;;;;;5024853;28;20185;-82
2023/05/22 03:28:11;;;;;;;9.07;4.22;;;9.90;99.90;;;;;;4994320;28;20182;-82
2023/05/22 03:30:36;;;;;;;8.10;4.25;;;9.90;99.90;;;;;;5025591;28;20223;-82
2023/05/22 03:33:02;;;;;;;10.18;4.85;;;10.00;99.90;;;;;;4994090;28;20185;-82
2023/05/22 03:35:28;;;;;;;11.75;4.55;;;10.00;99.90;;;;;;5009151;28;20213;-84
2023/05/22 03:37:53;;;;;;;12.07;5.13;;;10.10;99.90;;;;;;5024822;28;20189;-83
2023/05/22 03:40:19;;;;;;;9.88;4.22;;;10.20;99.90;;;;;;5024682;28;20196;-82
2023/05/22 03:42:45;;;;;;;7.55;4.28;;;10.20;99.90;;;;;;5026427;28;20623;-82
2023/05/22 03:45:11;;;;;;;8.60;4.70;;;10.30;99.90;;;;;;5025633;28;20309;-82
2023/05/22 03:47:36;;;;;;;13.23;4.78;;;10.40;99.90;;;;;;5026511;28;20575;-80
2023/05/22 03:50:02;;;;;;;5.68;3.53;;;10.50;99.90;;;;;;5002803;28;20209;-81
2023/05/22 03:52:28;;;;;;;10.52;4.68;;;10.50;99.90;;;;;;5005875;28;20280;-82
2023/05/22 03:54:53;;;;;;;10.55;4.07;;;10.60;99.90;;;;;;5029356;28;20205;-82
2023/05/22 03:57:19;;;;;;;6.97;4.18;;;10.70;99.90;;;;;;5026459;28;20182;-80
2023/05/22 03:59:45;;;;;;;10.63;3.97;;;;;;;;;;5010966;28;20675;-81
2023/05/22 04:02:11;;;;;;;5.78;3.55;;;10.90;99.90;;;;;;5027717;28;20229;-81
2023/05/22 04:04:38;;;;;;;7.55;4.25;;;11.00;99.90;;;;;;4995832;28;20567;-82
2023/05/22 04:07:07;;;;;;;4.65;2.83;;;10.90;99.90;;;;;;4995856;28;20182;-81
2023/05/22 04:09:34;;;;;;;5.43;3.50;;;11.20;99.90;;;;;;5027172;28;20181;-83
2023/05/22 04:12:00;;;;;;;6.25;3.13;;;11.30;99.90;;;;;;4995612;28;20218;-81
2023/05/22 04:14:26;;;;;;;6.72;3.65;;;11.40;99.90;;;;;;4995426;28;20174;-81
2023/05/22 04:16:52;;;;;;;11.85;4.10;;;11.30;99.90;;;;;;5010526;28;20644;-81
2023/05/22 04:19:17;;;;;;;5.90;3.53;;;11.70;99.90;;;;;;5026852;28;20188;-82
2023/05/22 04:21:44;;;;;;;11.48;3.78;;;11.80;99.90;;;;;;5026918;28;20189;-83
2023/05/22 04:24:09;;;;;;;5.50;3.33;;;12.00;99.90;;;;;;4995717;28;20260;-82
2023/05/22 04:26:37;;;;;;;6.63;3.42;;;12.10;99.90;;;;;;5026664;28;20313;-83
2023/05/22 04:29:03;;;;;;;9.65;3.47;;;12.20;99.90;;;;;;4994038;28;20174;-81
2023/05/22 04:31:29;;;;;;;7.45;4.40;;;12.40;99.90;;;;;;4995587;28;20287;-81
2023/05/22 04:33:55;;;;;;;11.38;4.22;;;12.50;99.90;;;;;;4995902;28;20205;-81
2023/05/22 04:36:24;;;;;;;10.75;3.85;;;12.60;99.90;;;;;;4995987;28;20186;-81
2023/05/22 04:38:50;;;;;;;5.05;3.05;;;12.70;99.90;;;;;;5026389;28;20209;-82
2023/05/22 04:41:16;;;;;;;6.68;3.65;;;12.80;99.90;;;;;;4994493;28;20659;-82
2023/05/22 04:43:43;;;;;;;8.23;3.50;;;12.90;99.90;;;;;;4995747;28;20182;-82
2023/05/22 04:46:09;;;;;;;6.60;3.55;;;13.00;99.90;;;;;;4995665;28;20173;-80
2023/05/22 04:48:35;;;;;;;5.25;2.72;;;13.10;99.90;;;;;;4995733;28;20182;-82
2023/05/22 04:51:03;;;;;;;11.52;3.33;;;13.20;99.90;;;;;;4995727;28;20210;-82
2023/05/22 04:53:29;;;;;;;3.47;2.22;;;13.30;99.90;;;;;;4994083;28;20194;-81
2023/05/22 04:55:56;;;;;;;4.75;2.80;;;13.50;99.90;;;;;;4995625;28;20228;-82
2023/05/22 04:58:22;;;;;;;3.03;2.30;;;13.50;99.90;;;;;;4994657;28;20627;-82
2023/05/22 05:00:48;;;;;;;9.23;3.13;;;13.70;99.90;;;;;;5026968;28;20190;-81
2023/05/22 05:03:14;;;;;;;4.57;3.13;;;13.80;99.90;;;;;;4995659;28;20674;-82
2023/05/22 05:05:40;;;;;;;8.02;3.00;;;13.90;99.90;;;;;;5010773;28;20193;-83
2023/05/22 05:08:05;;;;;;;4.90;2.30;;;14.10;99.90;;;;;;5027284;28;20182;-81
2023/05/22 05:10:31;;;;;;;3.42;1.92;;;14.20;99.90;;;;;;4994972;28;20245;-81
2023/05/22 05:12:57;;;;;;;4.20;2.20;;;14.30;99.90;;;;;;4994593;28;20190;-81
2023/05/22 05:15:22;;;;;;;5.55;2.33;;;14.40;99.90;;;;;;5027586;28;20557;-82
2023/05/22 05:17:48;;;;;;;4.10;2.50;;;14.50;99.90;;;;;;5027415;28;20182;-82
2023/05/22 05:20:14;;;;;;;4.63;2.33;;;14.60;99.90;;;;;;4996257;28;20232;-82
2023/05/22 05:22:40;;;;;;;6.40;2.72;;;14.70;99.90;;;;;;4996246;28;20182;-80
2023/05/22 05:25:06;;;;;;;2.92;2.08;;;14.80;99.90;;;;;;4994251;28;20181;-82
2023/05/22 05:27:32;;;;;;;4.00;2.50;;;15.00;99.90;;;;;;5027594;28;20635;-82
2023/05/22 05:29:58;;;;;;;6.03;2.83;;;;;;;;;;5027671;28;20279;-82
2023/05/22 05:32:23;;;;;;;2.95;1.90;;;15.20;99.90;;;;;;5027751;28;20247;-80
2023/05/22 05:34:50;;;;;;;4.50;2.15;;;15.30;99.90;;;;;;5027176;28;20182;-81
2023/05/22 05:37:16;;;;;;;6.28;2.60;;;15.50;99.90;;;;;;4995634;28;20181;-81
2023/05/22 05:39:41;;;;;;;5.25;2.38;;;15.60;99.90;;;;;;5027684;28;20181;-81
2023/05/22 05:42:07;;;;;;;9.85;2.30;;;15.70;99.90;;;;;;5028900;28;20195;-81
2023/05/22 05:44:32;;;;;;;3.70;2.35;;;15.90;99.90;;;;;;5027205;28;20237;-82
2023/05/22 05:46:58;;;;;;;5.57;2.70;;;16.00;99.90;;;;;;4995572;28;20638;-82
2023/05/22 05:49:24;;;;;;;2.83;1.98;;;;;;;;;;5010616;28;20696;-81
2023/05/22 05:51:50;;;;;;;6.53;2.70;;;16.20;99.90;;;;;;5026636;28;20216;-83
2023/05/22 05:54:16;;;;;;;5.03;2.60;;;16.30;99.90;;;;;;4996278;28;20264;-82
2023/05/22 05:56:42;;;;;;;4.53;2.30;;;;;;;;;;4995934;28;20216;-82
2023/05/22 05:59:08;;;;;;;4.85;2.60;;;16.30;99.90;;;;;;4995820;28;20232;-82
2023/05/22 06:01:34;;;;;;;8.82;3.25;;;16.90;99.90;;;;;;5026905;28;20294;-83
2023/05/22 06:04:04;;;;;;;5.32;2.60;;;;;;;;;;5027028;28;20202;-82
2023/05/22 06:06:38;;;;;;;4.35;2.00;;;16.70;99.90;;;;;;4995984;28;20174;-80
2023/05/22 06:09:05;;;;;;;5.03;2.03;;;16.70;99.90;;;;;;4995496;28;20166;-80
2023/05/22 06:11:31;;;;;;;5.22;2.00;;;17.30;99.90;;;;;;4995335;28;20202;-81
2023/05/22 06:13:58;;;;;;;2.95;2.22;;;16.80;99.90;;;;;;5026698;28;20197;-81
2023/05/22 06:16:24;;;;;;;7.28;2.90;;;16.90;99.90;;;;;;4995216;28;20181;-81
2023/05/22 06:18:51;;;;;;;3.60;2.63;;;17.70;99.90;;;;;;4993365;28;20186;-82
2023/05/22 06:21:19;;;;;;;4.68;2.42;;;17.40;98.90;;;;;;4993719;28;20281;-81
2023/05/22 06:23:46;;;;;;;3.58;2.20;;;17.70;99.90;;;;;;4995024;28;20177;-82
2023/05/22 06:26:12;;;;;;;6.30;2.38;;;18.30;99.90;;;;;;5010399;28;20189;-82
2023/05/22 06:28:38;;;;;;;3.33;2.25;;;;;;;;;;5010003;28;20550;-81
2023/05/22 06:31:04;;;;;;;2.38;2.03;;;17.70;99.90;;;;;;5026380;28;20260;-82
2023/05/22 06:33:30;;;;;;;3.13;2.30;;;18.10;99.90;;;;;;5026701;28;20182;-80
2023/05/22 06:35:57;;;;;;;3.53;2.42;;;18.30;99.90;;;;;;5026067;28;20706;-82
2023/05/22 06:38:23;;;;;;;5.47;2.88;;;;;;;;;;4994980;28;20177;-81
2023/05/22 06:40:49;;;;;;;5.80;1.98;;;17.90;99.90;;;;;;4996859;28;20214;-82
2023/05/22 06:43:15;;;;;;;3.05;2.22;;;;;;;;;;4995615;28;20547;-83
2023/05/22 06:45:40;;;;;;;2.92;2.20;;;18.30;99.90;;;;;;4994934;28;20260;-82
2023/05/22 06:48:06;;;;;;;5.10;3.03;;;;;;;;;;4994931;28;20205;-81
2023/05/22 06:50:32;;;;;;;4.78;2.88;;;;;;;;;;4995071;28;20730;-82
2023/05/22 06:52:58;;;;;;;6.10;3.15;;;18.90;99.90;;;;;;4994694;28;20177;-83
2023/05/22 06:55:24;;;;;;;3.20;2.22;;;;;;;;;;5009504;28;20260;-82
2023/05/22 06:57:50;;;;;;;4.32;2.20;;;18.20;99.90;;;;;;5009418;28;20206;-82
2023/05/22 07:00:17;;;;;;;3.35;2.30;;;19.30;99.90;;;;;;5025979;28;20228;-82
2023/05/22 07:02:42;;;;;;;3.35;2.35;;;18.70;90.30;;;;;;4997591;28;20245;-83
2023/05/22 07:05:08;;;;;;;5.22;2.33;;;;;;;;;;4997269;28;20182;-81
2023/05/22 07:07:34;;;;;;;3.47;2.13;;;19.40;99.90;;;;;;5009280;28;20182;-81
2023/05/22 07:10:00;;;;;;;3.72;2.22;;;;;;;;;;5026145;28;20648;-81
2023/05/22 07:12:27;;;;;;;4.65;1.77;;;;;;;;;;4995092;28;20304;-81
2023/05/22 07:14:53;;;;;;;8.43;2.08;;;18.90;94.70;;;;;;5025782;28;20200;-81
2023/05/22 07:17:20;;;;;;;5.32;3.28;;;;;;;;;;5025973;28;20547;-81
2023/05/22 07:19:47;;;;;;;2.53;1.80;;;19.70;93.30;;;;;;5025755;28;20182;-81
2023/05/22 07:22:13;;;;;;;1.88;1.58;;;19.80;93.20;;;;;;4993835;28;20182;-81
2023/05/22 07:24:39;;;;;;;4.85;2.00;;;;;;;;;;4993037;28;20188;-81
2023/05/22 07:27:05;;;;;;;2.35;1.95;;;19.00;99.90;;;;;;4995665;28;20185;-81
2023/05/22 07:29:31;;;;;;;3.05;1.95;;;19.50;99.90;;;;;;5027269;28;20189;-81
2023/05/22 07:31:57;;;;;;;6.07;1.85;;;;;;;;;;4997016;28;20217;-81
2023/05/22 07:34:28;;;;;;;3.22;2.40;;;19.10;98.30;;;;;;4998085;28;20173;-82
2023/05/22 07:36:54;;;;;;;3.22;1.70;;;19.70;91.40;;;;;;4996778;28;20209;-81
2023/05/22 07:39:20;;;;;;;6.55;1.90;;;;;;;;;;5029576;28;20178;-82
2023/05/22 07:41:49;;;;;;;2.97;2.50;;;19.50;92.70;;;;;;5029265;28;20627;-81
2023/05/22 07:44:15;;;;;;;3.83;2.00;;;20.10;92.60;;;;;;5028733;28;20237;-82
2023/05/22 07:46:41;;;;;;;2.42;1.73;;;;;;;;;;5029564;28;20189;-81
2023/05/22 07:49:07;;;;;;;2.30;1.80;;;;;;;;;;4997469;28;20181;-82
2023/05/22 07:51:32;;;;;;;4.60;2.13;;;20.50;92.80;;;;;;5029333;28;20217;-81
2023/05/22 07:53:58;;;;;;;3.63;1.73;;;20.40;99.90;;;;;;5013022;28;20189;-82
2023/05/22 07:56:26;;;;;;;2.80;1.70;;;;;;;;;;4996450;28;20189;-82
2023/05/22 07:58:52;;;;;;;2.22;1.70;;;;;;;;;;4997569;28;20182;-82
2023/05/22 08:01:17;;;;;;;4.50;1.45;;;20.20;68.10;;;;;;5012226;28;20193;-82
2023/05/22 08:03:43;;;;;;;2.00;1.70;;;20.20;64.70;;;;;;5029328;28;20261;-82
2023/05/22 08:06:09;;;;;;;3.70;2.15;;;20.30;67.90;;;;;;4997286;28;20217;-82
2023/05/22 08:08:35;;;;;;;2.63;1.83;;;20.30;69.70;;;;;;5012106;28;20212;-81
2023/05/22 08:11:01;;;;;;;4.43;2.17;;;20.30;68.80;;;;;;5028803;28;20217;-82
2023/05/22 08:13:26;;;;;;;2.15;1.83;;;20.30;69.20;;;;;;5028663;28;20178;-82
2023/05/22 08:15:52;;;;;;;2.25;1.50;;;20.30;67.10;;;;;;5028640;28;20181;-82
2023/05/22 08:18:18;;;;;;;2.20;1.98;;;20.30;66.10;;;;;;5028579;28;20686;-82
2023/05/22 08:20:45;;;;;;;2.97;2.17;;;20.50;67.10;;;;;;5028754;28;20658;-82
2023/05/22 08:23:11;;;;;;;1.85;1.55;;;20.60;65.60;;;;;;5028117;28;20201;-82
2023/05/22 08:25:36;;;;;;;2.92;1.75;;;20.70;66.80;;;;;;4996011;28;20544;-83
2023/05/22 08:28:02;;;;;;;5.47;1.73;;;20.70;64.40;;;;;;5012120;28;20190;-82
2023/05/22 08:30:28;;;;;;;2.50;1.73;;;20.70;67.30;;;;;;4997053;28;20185;-82
2023/05/22 08:32:53;;;;;;;2.22;1.67;;;20.80;65.60;;;;;;4995651;28;20542;-82
2023/05/22 08:35:19;;;;;;;2.92;1.92;;;20.80;65.60;;;;;;5028554;28;20685;-82
2023/05/22 08:37:45;;;;;;;2.88;1.83;;;20.90;59.60;;;;;;5028141;28;20193;-82
2023/05/22 08:40:12;;;;;;;1.77;1.33;;;20.80;60.20;;;;;;5028251;28;20193;-83
2023/05/22 08:42:37;;;;;;;1.95;1.38;;;20.80;61.90;;;;;;5027414;28;20217;-82
2023/05/22 08:45:05;;;;;;;2.83;1.83;;;20.80;62.50;;;;;;5011458;28;20257;-82
2023/05/22 08:47:35;;;;;;;2.38;1.77;;;20.90;61.40;;;;;;5027728;28;20175;-81
2023/05/22 08:50:02;;;;;;;3.42;1.60;;;20.60;61.10;;;;;;5011315;28;20192;-81
2023/05/22 08:52:52;;;;;;;2.03;1.45;;;20.80;61.80;;;;;;5027874;28;20236;-81
2023/05/22 08:55:18;;;;;;;2.10;1.70;;;21.00;60.20;;;;;;4986048;28;20198;-81
2023/05/22 08:57:48;;;;;;;4.25;1.67;;;21.10;62.00;;;;;;4997070;28;20206;-81
2023/05/22 09:00:15;;;;;;;2.95;1.80;;;21.10;60.10;;;;;;5028170;28;20685;-82
2023/05/22 09:02:41;;;;;;;4.18;1.65;;;21.00;59.30;;;;;;4996432;28;20181;-82
2023/05/22 09:05:08;;;;;;;5.43;1.67;;;21.20;62.90;;;;;;5027747;28;20607;-81
2023/05/22 09:07:34;;;;;;;4.43;1.50;;;21.30;62.70;;;;;;5027545;28;20228;-82
2023/05/22 09:10:03;;;;;;;2.38;1.70;;;21.40;62.80;;;;;;4996358;28;20182;-81
2023/05/22 09:12:30;;;;;;;3.53;1.65;;;21.60;62.70;;;;;;4996064;28;20205;-81
2023/05/22 09:15:02;;;;;;;2.83;2.05;;;21.60;61.60;;;;;;4995016;28;20186;-81
2023/05/22 09:17:27;;;;;;;3.65;2.17;;;21.70;63.40;;;;;;5027776;28;20292;-81
2023/05/22 09:19:53;;;;;;;2.80;1.90;;;21.70;60.00;;;;;;5027728;28;20736;-81
2023/05/22 09:22:19;;;;;;;2.63;2.13;;;21.60;62.00;;;;;;5010976;28;20594;-82
2023/05/22 09:24:46;;;;;;;2.40;1.98;;;21.50;61.40;;;;;;5027897;28;20182;-81
2023/05/22 09:27:11;;;;;;;4.55;2.17;;;21.60;63.30;;;;;;5027652;28;20182;-81
2023/05/22 09:30:07;;;;;;;5.00;2.05;;;21.90;63.50;;;;;;4996400;28;20188;-81
2023/05/22 09:32:33;;;;;;;2.63;1.80;;;21.90;61.40;;;;;;4988470;28;20229;-82
2023/05/22 09:35:03;;;;;;;2.05;1.73;;;21.80;60.60;;;;;;5027551;28;20186;-82
2023/05/22 09:37:33;;;;;;;2.78;1.90;;;21.70;58.70;;;;;;5027571;28;20232;-82
2023/05/22 09:40:06;;;;;;;3.03;1.80;;;21.90;60.40;;;;;;4994615;28;20187;-81
2023/05/22 09:42:33;;;;;;;2.67;1.70;;;22.10;59.50;;;;;;4996893;28;20631;-81
2023/05/22 09:45:06;;;;;;;2.75;1.48;;;22.20;58.40;;;;;;4996712;28;20236;-82
2023/05/22 09:47:33;;;;;;;1.48;1.27;;;22.30;55.80;;;;;;5028092;28;20174;-81
2023/05/22 09:50:03;;;;;;;2.13;1.42;;;22.50;55.10;;;;;;5028702;28;20188;-82
2023/05/22 09:52:34;;;;;;;1.65;1.50;;;22.60;54.60;;;;;;4995200;28;20205;-81
2023/05/22 09:55:05;;;;;;;2.05;1.50;;;22.90;56.10;;;;;;4994512;28;20201;-81
2023/05/22 09:57:37;;;;;;;1.45;1.10;;;22.80;53.70;;;;;;5011720;28;20243;-84
2023/05/22 10:00:08;;;;;;;1.30;1.20;;;23.00;53.50;;;;;;5030209;28;20186;-81
2023/05/22 10:02:36;;;;;;;2.25;1.45;;;23.00;52.80;;;;;;5004980;28;20238;-80
2023/05/22 10:05:08;;;;;;;1.35;1.20;;;23.00;53.00;;;;;;5021675;28;20174;-80
2023/05/22 10:07:47;;;;;;;1.95;1.73;;;23.20;54.40;;;;;;5005535;28;20205;-81
2023/05/22 10:10:16;;;;;;;1.90;1.35;;;23.20;53.70;;;;;;5037025;28;20185;-81
2023/05/22 10:12:45;;;;;;;1.67;1.40;;;23.10;51.80;;;;;;4994133;28;20249;-82
2023/05/22 10:15:11;;;;;;;3.80;1.73;;;23.20;52.60;;;;;;4993993;28;20181;-81
2023/05/22 10:17:40;;;;;;;2.05;1.50;;;23.10;52.90;;;;;;5026618;28;20271;-84
2023/05/22 10:20:07;;;;;;;2.33;1.40;;;22.90;52.80;;;;;;4995040;28;20201;-81
2023/05/22 10:22:37;;;;;;;2.35;1.33;;;22.40;50.30;;;;;;5026432;28;20190;-81
2023/05/22 10:25:03;;;;;;;1.55;1.00;;;22.40;53.10;;;;;;4993743;28;20208;-81
2023/05/22 10:27:29;;;;;;;3.33;1.40;;;22.70;52.60;;;;;;4994885;28;20213;-81
2023/05/22 10:29:57;;;;;;;1.92;1.20;;;22.80;53.70;;;;;;4993491;28;20206;-82
2023/05/22 10:32:55;;;;;;;2.33;1.23;;;22.60;53.10;;;;;;4994967;28;20304;-82
2023/05/22 10:35:35;;;;;;;2.20;1.40;;;22.80;52.40;;;;;;4995426;28;20177;-80
2023/05/22 10:38:27;;;;;;;2.53;1.30;;;22.90;51.60;;;;;;5026981;28;20659;-82
2023/05/22 10:40:54;;;;;;;2.17;1.65;;;23.10;54.80;;;;;;5031077;28;20216;-81
2023/05/22 10:43:21;;;;;;;3.10;1.30;;;23.50;54.60;;;;;;5027275;28;20181;-81
2023/05/22 10:45:47;;;;;;;1.63;1.30;;;23.50;51.10;;;;;;5026623;28;20264;-81
2023/05/22 10:48:13;;;;;;;1.55;1.45;;;23.50;53.30;;;;;;4995429;28;20260;-81
2023/05/22 10:50:39;;;;;;;1.67;1.55;;;23.50;52.10;;;;;;5028671;28;20185;-82
2023/05/22 10:53:30;;;;;;;2.05;1.63;;;23.50;52.70;;;;;;4995159;28;20182;-80
2023/05/22 10:55:57;;;;;;;1.80;1.45;;;23.50;52.90;;;;;;5026900;28;20656;-81
2023/05/22 10:58:30;;;;;;;2.05;1.73;;;23.30;50.60;;;;;;5028691;28;20182;-82
2023/05/22 11:01:11;;;;;;;1.70;1.55;;;23.40;55.00;;;;;;5009570;28;20204;-81
2023/05/22 11:03:58;;;;;;;2.20;1.52;;;23.40;53.00;;;;;;5025965;28;20193;-81
2023/05/22 11:06:44;;;;;;;2.15;1.63;;;23.20;52.90;;;;;;5025668;28;20706;-82
2023/05/22 11:09:34;;;;;;;2.50;1.70;;;22.90;53.50;;;;;;4994212;28;20256;-81
2023/05/22 11:12:19;;;;;;;2.10;1.27;;;22.60;53.30;;;;;;4994282;28;20729;-82
2023/05/22 11:14:51;;;;;;;1.48;1.17;;;22.60;55.70;;;;;;4992866;28;20281;-83
2023/05/22 11:17:31;;;;;;;2.30;1.80;;;22.80;54.50;;;;;;4994211;28;20178;-82
2023/05/22 11:20:04;;;;;;;3.17;1.60;;;22.70;54.30;;;;;;5009424;28;20216;-82
2023/05/22 11:22:43;;;;;;;4.70;2.10;;;22.70;54.00;;;;;;5009190;28;20284;-83
2023/05/22 11:25:13;;;;;;;2.75;1.80;;;22.90;53.80;;;;;;5025736;28;20647;-82
2023/05/22 11:27:40;;;;;;;2.40;1.70;;;23.10;53.20;;;;;;4994090;28;20686;-82
2023/05/22 11:30:07;;;;;;;2.58;1.83;;;23.10;52.80;;;;;;4994066;28;20174;-82
2023/05/22 11:32:35;;;;;;;3.30;1.65;;;23.20;52.70;;;;;;4993630;28;20206;-87
2023/05/22 11:35:04;;;;;;;3.28;1.98;;;23.40;52.50;;;;;;4993029;28;20224;-82
2023/05/22 11:37:30;;;;;;;1.95;1.58;;;23.60;52.40;;;;;;5024769;28;20178;-84
2023/05/22 11:39:57;;;;;;;2.42;1.92;;;23.70;50.80;;;;;;5008674;28;20188;-83
2023/05/22 11:42:23;;;;;;;2.90;1.88;;;23.60;51.90;;;;;;5025714;28;20689;-83
2023/05/22 11:44:49;;;;;;;4.50;1.60;;;23.90;53.20;;;;;;4992908;28;20291;-81
2023/05/22 11:47:15;;;;;;;2.45;1.67;;;24.00;52.20;;;;;;5009158;28;20178;-82
2023/05/22 11:49:41;;;;;;;2.38;1.60;;;23.70;51.20;;;;;;4995426;28;20249;-83
2023/05/22 11:52:08;;;;;;;2.25;1.58;;;23.50;53.00;;;;;;5027449;28;20220;-83
2023/05/22 11:54:34;;;;;;;1.90;1.60;;;23.20;52.20;;;;;;4996065;28;20186;-82
2023/05/22 11:57:03;;;;;;;1.80;1.55;;;23.10;52.30;;;;;;5025930;28;20631;-81
2023/05/22 11:59:29;;;;;;;3.90;1.63;;;23.00;51.30;;;;;;4994053;28;20189;-81
2023/05/22 12:01:54;;;;;;;2.20;1.50;;;23.00;52.70;;;;;;4992440;28;20190;-81
2023/05/22 12:04:22;;;;;;;1.83;1.50;;;23.00;52.00;;;;;;5025378;28;20695;-82
2023/05/22 12:06:47;;;;;;;2.15;1.73;;;22.90;53.20;;;;;;5025311;28;20182;-81
2023/05/22 12:09:13;;;;;;;2.13;1.50;;;22.80;51.50;;;;;;5025240;28;20233;-81
2023/05/22 12:11:43;;;;;;;1.40;1.30;;;22.80;52.20;;;;;;5025276;28;20217;-81
2023/05/22 12:14:10;;;;;;;3.65;1.90;;;22.90;52.60;;;;;;4993392;28;20643;-80
2023/05/22 12:16:36;;;;;;;2.25;1.63;;;23.00;51.90;;;;;;5025240;28;20240;-82
2023/05/22 12:19:09;;;;;;;4.15;1.60;;;23.00;52.80;;;;;;5012214;28;20182;-80
2023/05/22 12:21:38;;;;;;;3.67;1.60;;;22.90;52.70;;;;;;5028966;28;20273;-81
2023/05/22 12:24:05;;;;;;;2.28;1.40;;;23.00;52.80;;;;;;4997106;28;20178;-81
2023/05/22 12:26:31;;;;;;;4.15;1.80;;;22.90;52.40;;;;;;5012396;28;20182;-80
2023/05/22 12:28:57;;;;;;;4.03;1.83;;;22.90;52.00;;;;;;5012149;28;20236;-82
2023/05/22 12:31:24;;;;;;;4.05;1.65;;;22.80;52.60;;;;;;5012025;28;20648;-82
2023/05/22 12:33:56;;;;;;;1.98;1.70;;;22.90;54.20;;;;;;5028272;28;20196;-82
2023/05/22 12:36:38;;;;;;;2.03;1.40;;;23.00;52.20;;;;;;5028349;28;20209;-81
2023/05/22 12:39:09;;;;;;;1.63;1.30;;;23.00;54.60;;;;;;4997308;28;20166;-82
2023/05/22 12:41:35;;;;;;;4.53;2.30;;;23.00;53.30;;;;;;4995612;28;20174;-84
2023/05/22 12:44:02;;;;;;;2.80;1.60;;;23.00;52.30;;;;;;4994945;28;20647;-81
2023/05/22 12:46:30;;;;;;;5.13;1.90;;;23.10;54.20;;;;;;4996395;28;20166;-81
2023/05/22 12:48:55;;;;;;;2.08;1.60;;;23.10;53.30;;;;;;5027977;28;20204;-81
2023/05/22 12:51:22;;;;;;;2.47;1.63;;;23.20;52.10;;;;;;4996561;28;20682;-81
2023/05/22 12:53:48;;;;;;;1.73;1.25;;;23.10;53.00;;;;;;5027215;28;20277;-83
2023/05/22 12:56:14;;;;;;;3.28;2.10;;;22.70;52.60;;;;;;4995029;28;20264;-81
2023/05/22 12:58:40;;;;;;;1.85;1.50;;;22.60;51.60;;;;;;4996254;28;20533;-83